createdAt,value
2023-10-06T00:02:30.828Z,100530.80
2023-10-06T00:04:59.998Z,100527.40
2023-10-06T00:07:28.614Z,100530.60
2023-10-06T00:09:57.106Z,100528.40
2023-10-06T00:12:27.820Z,100530.00
2023-10-06T00:14:59.649Z,100532.40
2023-10-06T00:17:35.192Z,100532.20
2023-10-06T00:20:07.312Z,100533.60
2023-10-06T00:22:39.177Z,100533.00
2023-10-06T00:25:18.112Z,100535.80
2023-10-06T00:27:47.826Z,100532.60
2023-10-06T00:30:21.478Z,100529.60
2023-10-06T00:32:50.768Z,100532.00
2023-10-06T00:35:24.994Z,100531.20
2023-10-06T00:37:55.191Z,100536.60
2023-10-06T00:40:26.345Z,100539.00
2023-10-06T00:42:59.220Z,100539.20
2023-10-06T00:45:31.898Z,100540.40
2023-10-06T00:48:00.930Z,100536.00
2023-10-06T00:50:34.164Z,100530.60
2023-10-06T00:53:05.684Z,100530.00
2023-10-06T00:55:35.879Z,100525.20
2023-10-06T00:58:05.790Z,100522.80
2023-10-06T01:00:38.646Z,100518.00
2023-10-06T01:03:12.540Z,100518.00
2023-10-06T01:05:47.729Z,100517.00
2023-10-06T01:08:16.985Z,100511.80
2023-10-06T01:10:45.500Z,100516.00
2023-10-06T01:13:15.414Z,100519.20
2023-10-06T01:15:50.826Z,100515.20
2023-10-06T01:18:22.126Z,100520.20
2023-10-06T01:20:51.389Z,100520.20
2023-10-06T01:23:29.301Z,100516.60
2023-10-06T01:26:01.453Z,100513.20
2023-10-06T01:28:30.100Z,100520.20
2023-10-06T01:30:59.427Z,100526.20
2023-10-06T01:33:27.987Z,100525.80
2023-10-06T01:35:56.558Z,100528.80
2023-10-06T01:38:25.139Z,100529.40
2023-10-06T01:40:57.460Z,100530.60
2023-10-06T01:43:31.437Z,100532.00
2023-10-06T01:46:01.154Z,100529.00
2023-10-06T01:48:31.538Z,100532.60
2023-10-06T01:51:00.465Z,100529.80
2023-10-06T01:53:34.295Z,100523.00
2023-10-06T01:56:08.538Z,100525.20
2023-10-06T01:58:38.075Z,100534.20
2023-10-06T02:01:07.728Z,100538.20
2023-10-06T02:03:40.336Z,100536.40
2023-10-06T02:06:17.916Z,100531.60
2023-10-06T02:08:51.894Z,100536.00
2023-10-06T02:11:30.200Z,100533.20
2023-10-06T02:13:59.173Z,100533.20
2023-10-06T02:16:27.854Z,100542.60
2023-10-06T02:18:56.574Z,100545.40
2023-10-06T02:21:31.641Z,100542.80
2023-10-06T02:24:05.741Z,100534.80
2023-10-06T02:26:39.895Z,100535.20
2023-10-06T02:29:16.829Z,100538.40
2023-10-06T02:31:45.330Z,100539.20
2023-10-06T02:34:22.727Z,100534.80
2023-10-06T02:36:51.275Z,100529.80
2023-10-06T02:39:21.131Z,100534.80
2023-10-06T02:41:54.024Z,100532.80
2023-10-06T02:44:24.408Z,100534.20
2023-10-06T02:46:54.044Z,100531.60
2023-10-06T02:49:33.312Z,100536.60
2023-10-06T02:52:02.447Z,100540.20
2023-10-06T02:54:30.848Z,100541.80
2023-10-06T02:56:59.393Z,100542.00
2023-10-06T02:59:30.591Z,100542.00
2023-10-06T03:02:07.954Z,100545.20
2023-10-06T03:04:41.261Z,100542.80
2023-10-06T03:07:15.832Z,100538.60
2023-10-06T03:09:48.898Z,100541.80
2023-10-06T03:12:27.331Z,100541.60
2023-10-06T03:15:00.280Z,100542.60
2023-10-06T03:17:28.940Z,100540.80
2023-10-06T03:20:12.015Z,100538.80
2023-10-06T03:22:42.280Z,100544.20
2023-10-06T03:25:18.710Z,100539.80
2023-10-06T03:27:54.769Z,100535.80
2023-10-06T03:30:36.011Z,100534.80
2023-10-06T03:33:05.889Z,100535.60
2023-10-06T03:35:40.553Z,100535.00
2023-10-06T03:38:29.135Z,100539.60
2023-10-06T03:40:58.047Z,100537.80
2023-10-06T03:43:55.983Z,100539.40
2023-10-06T03:46:25.911Z,100543.80
2023-10-06T03:48:54.842Z,100549.00
2023-10-06T03:51:23.368Z,100546.80
2023-10-06T03:53:52.108Z,100548.00
2023-10-06T03:56:20.743Z,100552.20
2023-10-06T03:58:50.320Z,100551.20
2023-10-06T04:01:27.760Z,100556.40
2023-10-06T04:03:59.987Z,100552.80
2023-10-06T04:06:28.782Z,100557.80
2023-10-06T04:08:58.681Z,100564.20
2023-10-06T04:11:34.312Z,100570.40
2023-10-06T04:14:03.062Z,100569.20
2023-10-06T04:16:33.272Z,100574.20
2023-10-06T04:19:04.839Z,100571.80
2023-10-06T04:21:33.243Z,100573.40
2023-10-06T04:24:01.901Z,100575.20
2023-10-06T04:26:31.812Z,100577.20
2023-10-06T04:29:01.028Z,100575.60
2023-10-06T04:31:29.738Z,100581.40
2023-10-06T04:33:59.470Z,100582.20
2023-10-06T04:36:28.919Z,100585.40
2023-10-06T04:38:58.154Z,100588.80
2023-10-06T04:41:27.326Z,100584.00
2023-10-06T04:43:56.490Z,100591.80
2023-10-06T04:46:25.169Z,100595.00
2023-10-06T04:48:55.873Z,100594.60
2023-10-06T04:51:24.907Z,100599.00
2023-10-06T04:53:53.477Z,100603.00
2023-10-06T04:56:22.153Z,100607.20
2023-10-06T04:58:55.256Z,100606.60
2023-10-06T05:01:24.726Z,100614.20
2023-10-06T05:03:55.214Z,100623.20
2023-10-06T05:06:23.925Z,100621.20
2023-10-06T05:08:52.418Z,100626.40
2023-10-06T05:11:25.154Z,100629.20
2023-10-06T05:13:54.770Z,100631.40
2023-10-06T05:16:25.278Z,100634.40
2023-10-06T05:18:54.709Z,100636.60
2023-10-06T05:21:23.242Z,100637.80
2023-10-06T05:23:51.872Z,100638.60
2023-10-06T05:26:22.655Z,100637.60
2023-10-06T05:28:52.265Z,100642.20
2023-10-06T05:31:21.349Z,100645.60
2023-10-06T05:33:52.817Z,100644.80
2023-10-06T05:36:21.780Z,100646.80
2023-10-06T05:38:50.965Z,100650.40
2023-10-06T05:41:20.919Z,100651.20
2023-10-06T05:43:50.697Z,100653.00
2023-10-06T05:46:21.176Z,100654.20
2023-10-06T05:48:53.005Z,100656.00
2023-10-06T05:51:22.909Z,100661.60
2023-10-06T05:53:53.645Z,100664.20
2023-10-06T05:56:25.087Z,100666.80
2023-10-06T05:58:54.631Z,100670.40
2023-10-06T06:01:30.341Z,100673.60
2023-10-06T06:04:01.781Z,100677.40
2023-10-06T06:06:31.463Z,100679.60
2023-10-06T06:09:00.567Z,100681.20
2023-10-06T06:11:30.141Z,100683.00
2023-10-06T06:14:14.897Z,100687.20
2023-10-06T06:16:46.432Z,100694.60
2023-10-06T06:19:15.700Z,100697.20
2023-10-06T06:21:46.316Z,100696.60
2023-10-06T06:24:21.642Z,100699.60
2023-10-06T06:26:51.054Z,100697.40
2023-10-06T06:29:21.442Z,100691.00
2023-10-06T06:31:51.288Z,100691.40
2023-10-06T06:34:23.428Z,100694.80
2023-10-06T06:36:53.163Z,100697.60
2023-10-06T06:39:24.456Z,100696.80
2023-10-06T06:41:54.868Z,100697.40
2023-10-06T06:44:24.248Z,100696.80
2023-10-06T06:46:53.052Z,100696.20
2023-10-06T06:49:25.100Z,100695.80
2023-10-06T06:51:54.716Z,100695.40
2023-10-06T06:54:23.306Z,100693.60
2023-10-06T06:56:52.008Z,100691.40
2023-10-06T06:59:23.790Z,100688.80
2023-10-06T07:01:52.639Z,100686.20
2023-10-06T07:04:26.361Z,100688.00
2023-10-06T07:06:55.297Z,100693.80
2023-10-06T07:09:24.270Z,100694.00
2023-10-06T07:11:53.799Z,100694.40
2023-10-06T07:14:23.235Z,100696.80
2023-10-06T07:16:53.451Z,100695.80
2023-10-06T07:19:22.064Z,100695.80
2023-10-06T07:21:51.952Z,100695.80
2023-10-06T07:24:20.678Z,100696.00
2023-10-06T07:26:51.731Z,100701.80
2023-10-06T07:29:20.497Z,100703.20
2023-10-06T07:31:50.284Z,100706.60
2023-10-06T07:34:20.293Z,100709.60
2023-10-06T07:36:50.164Z,100708.00
2023-10-06T07:39:22.287Z,100713.60
2023-10-06T07:41:50.959Z,100718.40
2023-10-06T07:44:20.346Z,100731.60
2023-10-06T07:46:53.865Z,100731.60
2023-10-06T07:49:23.140Z,100733.00
2023-10-06T07:51:52.028Z,100734.20
2023-10-06T07:54:21.268Z,100741.20
2023-10-06T07:56:50.578Z,100735.20
2023-10-06T07:59:19.640Z,100734.60
2023-10-06T08:01:52.560Z,100738.80
2023-10-06T08:04:21.096Z,100739.80
2023-10-06T08:06:50.063Z,100739.40
2023-10-06T08:09:18.742Z,100742.60
2023-10-06T08:11:47.325Z,100745.40
2023-10-06T08:14:16.080Z,100741.60
2023-10-06T08:16:47.387Z,100743.20
2023-10-06T08:19:16.536Z,100747.00
2023-10-06T08:21:46.350Z,100745.20
2023-10-06T08:24:15.121Z,100740.80
2023-10-06T08:26:44.251Z,100735.00
2023-10-06T08:29:12.937Z,100737.40
2023-10-06T08:31:41.608Z,100739.40
2023-10-06T08:34:13.350Z,100736.40
2023-10-06T08:36:43.099Z,100737.80
2023-10-06T08:39:51.280Z,100743.00
2023-10-06T08:42:21.516Z,100737.40
2023-10-06T08:44:50.313Z,100744.60
2023-10-06T08:47:27.912Z,100745.40
2023-10-06T08:50:02.081Z,100743.20
2023-10-06T08:52:36.953Z,100741.00
2023-10-06T08:55:09.259Z,100745.40
2023-10-06T08:57:43.196Z,100746.40
2023-10-06T09:00:12.354Z,100747.80
2023-10-06T09:02:43.181Z,100749.20
2023-10-06T09:05:13.674Z,100745.80
2023-10-06T09:08:08.217Z,100745.60
2023-10-06T09:10:43.114Z,100746.20
2023-10-06T09:13:18.621Z,100743.40
2023-10-06T09:16:04.881Z,100743.60
2023-10-06T09:18:41.612Z,100744.40
2023-10-06T09:22:08.376Z,100744.20
2023-10-06T09:24:37.501Z,100742.00
2023-10-06T09:27:26.908Z,100742.40
2023-10-06T09:30:07.404Z,100741.80
2023-10-06T09:32:37.254Z,100737.80
2023-10-06T09:35:25.140Z,100739.80
2023-10-06T09:38:17.514Z,100740.00
2023-10-06T09:40:48.103Z,100734.60
2023-10-06T09:43:19.598Z,100730.20
2023-10-06T09:45:53.721Z,100734.40
2023-10-06T09:51:54.158Z,100728.80
2023-10-06T09:54:24.207Z,100731.20
2023-10-06T09:56:56.980Z,100729.20
2023-10-06T09:59:27.900Z,100727.80
2023-10-06T10:01:59.834Z,100727.20
2023-10-06T10:04:31.161Z,100732.20
2023-10-06T10:07:03.841Z,100726.00
2023-10-06T10:09:36.842Z,100722.00
2023-10-06T10:12:06.563Z,100726.60
2023-10-06T10:14:50.956Z,100716.80
2023-10-06T10:17:30.581Z,100719.20
2023-10-06T10:20:01.158Z,100713.40
2023-10-06T10:22:33.515Z,100712.40
2023-10-06T10:27:39.002Z,100707.00
2023-10-06T10:30:17.876Z,100707.20
2023-10-06T10:32:56.073Z,100709.60
2023-10-06T10:35:25.033Z,100710.20
2023-10-06T10:37:57.229Z,100708.40
2023-10-06T10:40:28.166Z,100707.20
2023-10-06T10:43:09.328Z,100706.20
2023-10-06T10:45:45.618Z,100705.60
2023-10-06T10:48:17.072Z,100703.60
2023-10-06T10:51:01.860Z,100700.20
2023-10-06T10:53:33.335Z,100703.20
2023-10-06T10:56:05.806Z,100700.60
2023-10-06T10:58:45.354Z,100701.20
2023-10-06T11:01:29.366Z,100701.80
2023-10-06T11:04:32.387Z,100698.20
2023-10-06T11:07:39.439Z,100692.80
2023-10-06T11:10:09.538Z,100700.40
2023-10-06T11:12:38.394Z,100698.80
2023-10-06T11:18:14.853Z,100704.20
2023-10-06T11:20:44.068Z,100704.20
2023-10-06T11:23:13.496Z,100700.80
2023-10-06T11:25:52.989Z,100690.80
2023-10-06T11:28:22.305Z,100691.20
2023-10-06T11:30:52.108Z,100691.20
2023-10-06T11:33:22.467Z,100690.80
2023-10-06T11:35:55.479Z,100692.80
2023-10-06T11:38:24.271Z,100691.40
2023-10-06T11:40:52.868Z,100696.80
2023-10-06T11:43:24.285Z,100692.20
2023-10-06T11:46:04.329Z,100692.20
2023-10-06T11:48:37.628Z,100686.40
2023-10-06T11:51:08.676Z,100683.40
2023-10-06T11:53:40.582Z,100680.60
2023-10-06T11:56:12.088Z,100680.60
2023-10-06T11:58:42.965Z,100678.20
2023-10-06T12:01:38.700Z,100678.40
2023-10-06T12:04:24.747Z,100673.40
2023-10-06T12:06:53.540Z,100677.60
2023-10-06T12:09:27.180Z,100678.80
2023-10-06T12:11:57.339Z,100678.80
2023-10-06T12:14:26.995Z,100677.20
2023-10-06T12:16:56.465Z,100673.40
2023-10-06T12:19:25.321Z,100677.40
2023-10-06T12:21:53.994Z,100677.40
2023-10-06T12:24:24.048Z,100676.00
2023-10-06T12:26:52.933Z,100678.80
2023-10-06T12:29:22.299Z,100678.20
2023-10-06T12:31:51.184Z,100674.40
2023-10-06T12:34:21.566Z,100673.20
2023-10-06T12:36:50.575Z,100672.80
2023-10-06T12:39:45.751Z,100671.60
2023-10-06T12:43:02.131Z,100671.60
2023-10-06T12:45:31.964Z,100669.00
2023-10-06T12:48:03.702Z,100671.00
2023-10-06T12:50:34.345Z,100665.80
2023-10-06T12:53:03.397Z,100663.00
2023-10-06T12:55:32.889Z,100663.00
2023-10-06T12:58:01.772Z,100661.40
2023-10-06T13:00:30.612Z,100663.80
2023-10-06T13:03:02.516Z,100659.20
2023-10-06T13:05:31.510Z,100656.40
2023-10-06T13:08:00.478Z,100658.40
2023-10-06T13:10:29.514Z,100659.40
2023-10-06T13:12:58.422Z,100659.00
2023-10-06T13:15:30.725Z,100657.80
2023-10-06T13:17:59.592Z,100654.80
2023-10-06T13:20:28.425Z,100655.20
2023-10-06T13:22:57.265Z,100654.80
2023-10-06T13:25:29.000Z,100654.40
2023-10-06T13:27:57.728Z,100647.80
2023-10-06T13:30:26.475Z,100647.00
2023-10-06T13:32:59.001Z,100652.40
2023-10-06T13:35:28.487Z,100649.40
2023-10-06T13:37:58.694Z,100649.00
2023-10-06T13:40:27.396Z,100649.60
2023-10-06T13:42:56.137Z,100645.80
2023-10-06T13:45:24.996Z,100643.00
2023-10-06T13:47:55.720Z,100639.80
2023-10-06T13:50:28.919Z,100638.40
2023-10-06T13:52:57.853Z,100645.20
2023-10-06T13:55:26.795Z,100646.00
2023-10-06T13:57:59.989Z,100649.20
2023-10-06T14:00:29.436Z,100649.60
2023-10-06T14:03:02.087Z,100649.60
2023-10-06T14:05:35.177Z,100651.00
2023-10-06T14:08:05.729Z,100656.00
2023-10-06T14:10:37.488Z,100655.80
2023-10-06T14:13:12.997Z,100661.80
2023-10-06T14:15:42.638Z,100660.60
2023-10-06T14:18:14.397Z,100659.40
2023-10-06T14:20:46.767Z,100662.60
2023-10-06T14:23:16.303Z,100669.40
2023-10-06T14:25:46.186Z,100674.20
2023-10-06T14:28:14.992Z,100674.60
2023-10-06T14:30:45.010Z,100682.40
2023-10-06T14:33:24.674Z,100679.60
2023-10-06T14:36:01.045Z,100686.80
2023-10-06T14:38:35.254Z,100684.20
2023-10-06T14:41:21.672Z,100688.60
2023-10-06T14:44:10.402Z,100687.20
2023-10-06T14:46:44.377Z,100688.60
2023-10-06T14:49:15.896Z,100687.20
2023-10-06T14:51:45.568Z,100686.80
2023-10-06T14:54:14.131Z,100690.40
2023-10-06T14:56:43.164Z,100693.20
2023-10-06T14:59:11.782Z,100698.00
2023-10-06T15:01:41.988Z,100694.80
2023-10-06T15:04:14.901Z,100699.00
2023-10-06T15:06:43.850Z,100701.40
2023-10-06T15:09:21.684Z,100704.40
2023-10-06T15:11:53.932Z,100703.00
2023-10-06T15:14:29.714Z,100711.20
2023-10-06T15:17:01.263Z,100719.20
2023-10-06T15:19:36.111Z,100716.60
2023-10-06T15:22:04.781Z,100723.20
2023-10-06T15:24:33.717Z,100724.00
2023-10-06T15:27:07.973Z,100728.20
2023-10-06T15:29:36.807Z,100726.80
2023-10-06T15:32:06.809Z,100729.80
2023-10-06T15:34:37.554Z,100732.20
2023-10-06T15:37:06.386Z,100735.60
2023-10-06T15:39:34.907Z,100731.80
2023-10-06T15:42:05.663Z,100733.20
2023-10-06T15:44:34.700Z,100731.60
2023-10-06T15:47:03.445Z,100732.00
2023-10-06T15:49:33.757Z,100737.60
2023-10-06T15:52:04.168Z,100740.80
2023-10-06T15:54:33.494Z,100746.20
2023-10-06T15:57:02.386Z,100755.40
2023-10-06T15:59:31.760Z,100763.00
2023-10-06T16:02:01.775Z,100761.60
2023-10-06T16:04:30.350Z,100767.00
2023-10-06T16:07:00.510Z,100770.60
2023-10-06T16:09:29.093Z,100772.60
2023-10-06T16:11:58.819Z,100771.00
2023-10-06T16:14:27.378Z,100779.40
2023-10-06T16:16:57.350Z,100783.60
2023-10-06T16:19:25.984Z,100781.20
2023-10-06T16:21:56.335Z,100789.40
2023-10-06T16:24:25.293Z,100792.20
2023-10-06T16:26:53.870Z,100798.40
2023-10-06T16:29:22.981Z,100800.20
2023-10-06T16:31:52.056Z,100804.00
2023-10-06T16:34:20.663Z,100806.80
2023-10-06T16:36:49.142Z,100808.60
2023-10-06T16:39:18.385Z,100811.20
2023-10-06T16:41:47.219Z,100813.20
2023-10-06T16:44:16.682Z,100815.80
2023-10-06T16:46:45.311Z,100823.00
2023-10-06T16:49:13.997Z,100820.00
2023-10-06T16:51:44.609Z,100823.20
2023-10-06T16:54:13.066Z,100825.40
2023-10-06T16:56:41.525Z,100827.40
2023-10-06T16:59:10.360Z,100826.40
2023-10-06T17:01:42.265Z,100825.80
2023-10-06T17:04:16.153Z,100827.40
2023-10-06T17:06:47.040Z,100828.60
2023-10-06T17:09:15.978Z,100831.40
2023-10-06T17:11:45.036Z,100832.80
2023-10-06T17:14:14.009Z,100834.80
2023-10-06T17:16:43.165Z,100835.20
2023-10-06T17:19:13.794Z,100838.60
2023-10-06T17:21:43.925Z,100840.80
2023-10-06T17:24:13.891Z,100842.20
2023-10-06T17:26:44.114Z,100849.20
2023-10-06T17:29:13.446Z,100849.80
2023-10-06T17:31:42.240Z,100853.60
2023-10-06T17:34:10.766Z,100851.60
2023-10-06T17:36:42.168Z,100849.40
2023-10-06T17:39:10.881Z,100851.80
2023-10-06T17:41:40.239Z,100853.60
2023-10-06T17:44:10.612Z,100846.40
2023-10-06T17:46:40.758Z,100850.00
2023-10-06T17:49:09.682Z,100849.20
2023-10-06T17:51:38.624Z,100846.60
2023-10-06T17:54:07.299Z,100845.00
2023-10-06T17:56:36.193Z,100846.80
2023-10-06T17:59:16.837Z,100847.20
2023-10-06T18:01:46.122Z,100851.60
2023-10-06T18:04:14.964Z,100857.00
2023-10-06T18:06:43.567Z,100861.80
2023-10-06T18:09:14.827Z,100864.40
2023-10-06T18:11:52.750Z,100867.40
2023-10-06T18:14:31.784Z,100870.20
2023-10-06T18:17:00.261Z,100876.00
2023-10-06T18:19:29.322Z,100877.60
2023-10-06T18:21:57.881Z,100884.20
2023-10-06T18:24:27.085Z,100888.00
2023-10-06T18:26:56.125Z,100890.40
2023-10-06T18:29:26.596Z,100889.20
2023-10-06T18:31:57.470Z,100897.00
2023-10-06T18:34:26.271Z,100898.60
2023-10-06T18:36:54.782Z,100900.40
2023-10-06T18:39:25.972Z,100905.80
2023-10-06T18:41:54.495Z,100906.40
2023-10-06T18:44:23.556Z,100911.00
2023-10-06T18:46:52.369Z,100911.00
2023-10-06T18:49:21.081Z,100909.00
2023-10-06T18:51:49.645Z,100910.80
2023-10-06T18:54:18.113Z,100912.20
2023-10-06T18:56:48.391Z,100916.00
2023-10-06T18:59:50.581Z,100926.40
2023-10-06T19:02:20.069Z,100926.40
2023-10-06T19:04:52.400Z,100928.20
2023-10-06T19:07:21.089Z,100923.40
2023-10-06T19:09:51.039Z,100930.40
2023-10-06T19:12:19.522Z,100927.80
2023-10-06T19:14:48.159Z,100924.20
2023-10-06T19:17:17.721Z,100922.60
2023-10-06T19:19:46.363Z,100926.00
2023-10-06T19:22:15.003Z,100932.60
2023-10-06T19:24:43.577Z,100931.20
2023-10-06T19:27:12.609Z,100930.00
2023-10-06T19:29:41.240Z,100935.20
2023-10-06T19:32:09.774Z,100937.80
2023-10-06T19:34:41.340Z,100929.20
2023-10-06T19:37:12.418Z,100931.40
2023-10-06T19:39:41.003Z,100938.40
2023-10-06T19:42:11.431Z,100937.40
2023-10-06T19:44:44.599Z,100940.40
2023-10-06T19:47:13.830Z,100941.80
2023-10-06T19:49:43.579Z,100944.60
2023-10-06T19:52:12.106Z,100946.40
2023-10-06T19:54:40.599Z,100946.60
2023-10-06T19:57:09.083Z,100942.60
2023-10-06T19:59:37.576Z,100947.20
2023-10-06T20:02:07.012Z,100946.20
2023-10-06T20:04:35.622Z,100945.80
2023-10-06T20:07:06.537Z,100945.60
2023-10-06T20:09:35.057Z,100940.80
2023-10-06T20:12:03.583Z,100940.40
2023-10-06T20:14:32.355Z,100938.40
2023-10-06T20:17:01.061Z,100938.20
2023-10-06T20:19:29.774Z,100944.60
2023-10-06T20:21:58.329Z,100946.80
2023-10-06T20:24:26.867Z,100949.00
2023-10-06T20:26:56.628Z,100944.40
2023-10-06T20:29:25.724Z,100950.80
2023-10-06T20:31:54.493Z,100946.40
2023-10-06T20:34:23.096Z,100950.00
2023-10-06T20:36:51.645Z,100951.20
2023-10-06T20:39:20.071Z,100957.20
2023-10-06T20:41:49.457Z,100965.00
2023-10-06T20:44:21.399Z,100967.20
2023-10-06T20:46:52.421Z,100967.80
2023-10-06T20:49:31.312Z,100970.60
2023-10-06T20:51:59.956Z,100974.60
2023-10-06T20:54:28.451Z,100982.40
2023-10-06T20:56:56.922Z,100980.00
2023-10-06T20:59:25.818Z,100981.80
2023-10-06T21:01:54.414Z,100984.60
2023-10-06T21:04:22.939Z,100982.00
2023-10-06T21:06:51.635Z,100988.80
2023-10-06T21:09:20.162Z,100986.80
2023-10-06T21:11:48.622Z,100986.40
2023-10-06T21:14:19.231Z,100985.40
2023-10-06T21:16:49.062Z,100987.40
2023-10-06T21:19:17.622Z,100988.00
2023-10-06T21:21:46.141Z,100985.00
2023-10-06T21:24:14.830Z,100985.00
2023-10-06T21:26:44.728Z,100983.80
2023-10-06T21:29:13.284Z,100983.80
2023-10-06T21:31:41.718Z,100982.80
2023-10-06T21:34:10.309Z,100986.00
2023-10-06T21:36:38.861Z,100981.80
2023-10-06T21:39:08.097Z,100977.80
2023-10-06T21:41:36.542Z,100976.20
2023-10-06T21:44:05.273Z,100979.80
2023-10-06T21:46:34.182Z,100981.40
2023-10-06T21:49:06.914Z,100981.20
2023-10-06T21:51:35.382Z,100980.20
2023-10-06T21:54:03.917Z,100979.40
2023-10-06T21:56:32.427Z,100978.60
2023-10-06T21:59:02.759Z,100978.00
2023-10-06T22:01:31.318Z,100975.40
2023-10-06T22:04:01.643Z,100971.60
2023-10-06T22:06:30.327Z,100971.00
2023-10-06T22:08:58.827Z,100970.80
2023-10-06T22:11:27.354Z,100976.80
2023-10-06T22:13:55.821Z,100978.80
2023-10-06T22:16:24.320Z,100980.20
2023-10-06T22:18:52.833Z,100982.80
2023-10-06T22:21:21.376Z,100980.40
2023-10-06T22:23:49.802Z,100983.80
2023-10-06T22:26:18.283Z,100983.80
2023-10-06T22:28:46.841Z,100985.20
2023-10-06T22:31:15.305Z,100986.40
2023-10-06T22:33:43.838Z,100988.00
2023-10-06T22:36:15.013Z,100986.80
2023-10-06T22:38:43.502Z,100987.60
2023-10-06T22:41:18.545Z,100983.80
2023-10-06T22:43:48.733Z,100982.20
2023-10-06T22:46:17.278Z,100978.80
2023-10-06T22:48:48.070Z,100981.00
2023-10-06T22:52:01.526Z,100981.00
2023-10-06T22:54:29.940Z,100980.80
2023-10-06T22:57:00.711Z,100980.00
2023-10-06T22:59:29.342Z,100973.80
2023-10-06T23:01:57.956Z,100973.40
2023-10-06T23:04:27.579Z,100974.60
2023-10-06T23:06:56.029Z,100975.80
2023-10-06T23:09:25.275Z,100979.80
2023-10-06T23:11:53.645Z,100981.60
2023-10-06T23:14:22.092Z,100978.20
2023-10-06T23:16:50.698Z,100971.80
2023-10-06T23:19:19.244Z,100971.40
2023-10-06T23:21:48.015Z,100971.60
2023-10-06T23:24:16.764Z,100969.40
2023-10-06T23:26:45.267Z,100971.20
2023-10-06T23:29:15.611Z,100969.60
2023-10-06T23:31:44.144Z,100965.60
2023-10-06T23:34:12.789Z,100964.80
2023-10-06T23:36:46.726Z,100961.20
2023-10-06T23:39:20.194Z,100962.40
2023-10-06T23:41:52.317Z,100963.80
2023-10-06T23:44:21.117Z,100959.40
2023-10-06T23:46:49.616Z,100961.20
2023-10-06T23:49:19.170Z,100961.00
2023-10-06T23:51:47.746Z,100962.40
2023-10-06T23:55:03.762Z,100956.80
2023-10-06T23:57:33.225Z,100962.20
